createdAt,value
2023-04-22T00:02:30.130Z,100.00
2023-04-22T00:05:20.542Z,100.00
2023-04-22T00:08:09.310Z,100.00
2023-04-22T00:10:57.775Z,100.00
2023-04-22T00:13:46.354Z,100.00
2023-04-22T00:16:36.323Z,100.00
2023-04-22T00:19:25.034Z,100.00
2023-04-22T00:22:13.527Z,100.00
2023-04-22T00:25:02.334Z,100.00
2023-04-22T00:27:50.763Z,100.00
2023-04-22T00:30:39.334Z,100.00
2023-04-22T00:33:29.196Z,100.00
2023-04-22T00:36:17.716Z,100.00
2023-04-22T00:39:06.469Z,100.00
2023-04-22T00:41:55.068Z,100.00
2023-04-22T00:44:43.686Z,100.00
2023-04-22T00:47:32.590Z,100.00
2023-04-22T00:50:22.449Z,100.00
2023-04-22T00:53:11.713Z,100.00
2023-04-22T00:56:00.629Z,100.00
2023-04-22T00:58:49.119Z,100.00
2023-04-22T01:01:37.982Z,100.00
2023-04-22T01:04:26.606Z,100.00
2023-04-22T01:07:16.532Z,100.00
2023-04-22T01:10:05.773Z,100.00
2023-04-22T01:12:54.232Z,100.00
2023-04-22T01:15:42.705Z,100.00
2023-04-22T01:18:31.184Z,100.00
2023-04-22T01:21:20.081Z,100.00
2023-04-22T01:24:10.237Z,100.00
2023-04-22T01:26:58.706Z,100.00
2023-04-22T01:29:47.371Z,100.00
2023-04-22T01:32:36.212Z,100.00
2023-04-22T01:35:24.838Z,100.00
2023-04-22T01:38:14.522Z,100.00
2023-04-22T01:41:04.666Z,100.00
2023-04-22T01:43:54.636Z,100.00
2023-04-22T01:46:43.121Z,100.00
2023-04-22T01:49:31.585Z,100.00
2023-04-22T01:52:20.100Z,100.00
2023-04-22T01:55:09.782Z,100.00
2023-04-22T01:57:59.583Z,100.00
2023-04-22T02:00:48.608Z,100.00
2023-04-22T02:03:37.243Z,100.00
2023-04-22T02:06:26.016Z,100.00
2023-04-22T02:09:14.515Z,100.00
2023-04-22T02:12:03.136Z,100.00
2023-04-22T02:14:52.914Z,100.00
2023-04-22T02:17:43.350Z,100.00
2023-04-22T02:20:34.866Z,100.00
2023-04-22T02:23:23.373Z,100.00
2023-04-22T02:26:11.780Z,100.00
2023-04-22T02:29:00.250Z,100.00
2023-04-22T02:31:50.097Z,100.00
2023-04-22T02:34:38.735Z,100.00
2023-04-22T02:37:27.181Z,100.00
2023-04-22T02:40:15.586Z,100.00
2023-04-22T02:43:04.078Z,100.00
2023-04-22T02:45:52.579Z,100.00
2023-04-22T02:48:42.367Z,100.00
2023-04-22T02:51:31.150Z,100.00
2023-04-22T02:54:19.619Z,100.00
2023-04-22T02:57:08.138Z,100.00
2023-04-22T02:59:57.086Z,100.00
2023-04-22T03:02:45.764Z,100.00
2023-04-22T03:05:35.755Z,100.00
2023-04-22T03:08:24.212Z,100.00
2023-04-22T03:11:13.774Z,100.00
2023-04-22T03:14:02.266Z,100.00
2023-04-22T03:16:50.813Z,100.00
2023-04-22T03:19:39.663Z,100.00
2023-04-22T03:22:29.685Z,100.00
2023-04-22T03:25:18.160Z,100.00
2023-04-22T03:28:06.590Z,100.00
2023-04-22T03:30:55.096Z,100.00
2023-04-22T03:33:43.537Z,100.00
2023-04-22T03:36:32.051Z,100.00
2023-04-22T03:39:21.848Z,100.00
2023-04-22T03:42:11.736Z,100.00
2023-04-22T03:45:00.368Z,100.00
2023-04-22T03:47:48.832Z,100.00
2023-04-22T03:50:37.306Z,100.00
2023-04-22T03:53:25.774Z,100.00
2023-04-22T03:56:15.598Z,100.00
2023-04-22T03:59:04.086Z,100.00
2023-04-22T04:01:53.140Z,100.00
2023-04-22T04:04:41.796Z,100.00
2023-04-22T04:07:30.497Z,100.00
2023-04-22T04:10:18.976Z,100.00
2023-04-22T04:13:08.860Z,100.00
2023-04-22T04:15:58.441Z,100.00
2023-04-22T04:18:46.970Z,100.00
2023-04-22T04:21:35.478Z,100.00
2023-04-22T04:24:23.990Z,100.00
2023-04-22T04:27:12.478Z,100.00
2023-04-22T04:30:04.343Z,100.00
2023-04-22T04:32:53.517Z,100.00
2023-04-22T04:35:43.254Z,100.00
2023-04-22T04:38:32.258Z,100.00
2023-04-22T04:41:21.201Z,100.00
2023-04-22T04:44:10.444Z,100.00
2023-04-22T04:47:00.402Z,100.00
2023-04-22T04:49:50.128Z,100.00
2023-04-22T04:52:38.641Z,100.00
2023-04-22T04:55:27.086Z,100.00
2023-04-22T04:58:15.562Z,100.00
2023-04-22T05:01:04.049Z,100.00
2023-04-22T05:03:54.002Z,100.00
2023-04-22T05:06:42.600Z,100.00
2023-04-22T05:09:37.037Z,100.00
2023-04-22T05:12:25.632Z,100.00
2023-04-22T05:15:14.194Z,100.00
2023-04-22T05:18:02.802Z,100.00
2023-04-22T05:20:52.672Z,100.00
2023-04-22T05:23:41.100Z,100.00
2023-04-22T05:26:29.586Z,100.00
2023-04-22T05:29:18.240Z,100.00
2023-04-22T05:32:08.174Z,100.00
2023-04-22T05:34:56.815Z,100.00
2023-04-22T05:37:46.706Z,100.00
2023-04-22T05:40:35.422Z,100.00
2023-04-22T05:43:23.904Z,100.00
2023-04-22T05:46:12.460Z,100.00
2023-04-22T05:49:00.927Z,100.00
2023-04-22T05:51:49.367Z,100.00
2023-04-22T05:54:39.456Z,100.00
2023-04-22T05:57:27.966Z,100.00
2023-04-22T06:00:18.102Z,100.00
2023-04-22T06:03:06.890Z,100.00
2023-04-22T06:05:55.558Z,100.00
2023-04-22T06:08:44.092Z,100.00
2023-04-22T06:11:33.882Z,100.00
2023-04-22T06:14:22.318Z,100.00
2023-04-22T06:17:10.810Z,100.00
2023-04-22T06:19:59.283Z,100.00
2023-04-22T06:22:47.762Z,100.00
2023-04-22T06:25:36.323Z,100.00
2023-04-22T06:28:26.236Z,100.00
2023-04-22T06:31:14.763Z,100.00
2023-04-22T06:34:03.291Z,100.00
2023-04-22T06:36:53.099Z,100.00
2023-04-22T06:39:41.995Z,100.00
2023-04-22T06:42:30.967Z,100.00
2023-04-22T06:45:20.920Z,100.00
2023-04-22T06:48:09.424Z,100.00
2023-04-22T06:50:58.111Z,100.00
2023-04-22T06:53:47.233Z,100.00
2023-04-22T06:56:36.020Z,100.00
2023-04-22T06:59:24.564Z,98.50
2023-04-22T07:02:14.692Z,95.49
2023-04-22T07:05:03.590Z,94.11
2023-04-22T07:07:52.205Z,92.89
2023-04-22T07:10:40.711Z,89.46
2023-04-22T07:13:29.195Z,87.80
2023-04-22T07:16:17.693Z,87.62
2023-04-22T07:19:07.564Z,85.69
2023-04-22T07:21:56.100Z,83.72
2023-04-22T07:24:44.675Z,81.62
2023-04-22T07:27:34.230Z,81.15
2023-04-22T07:30:23.556Z,78.80
2023-04-22T07:33:12.087Z,77.99
2023-04-22T07:36:01.952Z,76.49
2023-04-22T07:38:50.441Z,74.92
2023-04-22T07:41:38.976Z,72.18
2023-04-22T07:44:27.596Z,71.92
2023-04-22T07:47:16.098Z,67.47
2023-04-22T07:50:07.065Z,65.52
2023-04-22T07:52:57.086Z,64.95
2023-04-22T07:55:45.903Z,62.85
2023-04-22T07:58:34.458Z,62.64
2023-04-22T08:01:23.092Z,62.22
2023-04-22T08:04:11.885Z,61.48
2023-04-22T08:07:09.303Z,61.18
2023-04-22T08:10:08.816Z,60.16
2023-04-22T08:12:57.325Z,60.44
2023-04-22T08:15:45.863Z,58.43
2023-04-22T08:18:34.389Z,57.48
2023-04-22T08:21:33.583Z,56.51
2023-04-22T08:24:22.040Z,54.20
2023-04-22T08:27:11.954Z,54.97
2023-04-22T08:30:00.436Z,53.14
2023-04-22T08:32:51.712Z,52.71
2023-04-22T08:35:41.118Z,51.81
2023-04-22T08:38:29.576Z,52.05
2023-04-22T08:41:19.465Z,52.13
2023-04-22T08:44:09.445Z,52.40
2023-04-22T08:46:58.170Z,53.10
2023-04-22T08:49:47.112Z,54.11
2023-04-22T08:52:35.699Z,52.48
2023-04-22T08:55:24.247Z,53.09
2023-04-22T08:58:13.178Z,53.14
2023-04-22T09:01:03.799Z,52.35
2023-04-22T09:03:53.402Z,52.19
2023-04-22T09:06:42.008Z,51.42
2023-04-22T09:09:31.820Z,50.59
2023-04-22T09:12:20.288Z,50.40
2023-04-22T09:15:09.811Z,50.20
2023-04-22T09:18:00.159Z,49.48
2023-04-22T09:20:49.626Z,49.49
2023-04-22T09:23:46.920Z,49.15
2023-04-22T09:26:35.549Z,48.38
2023-04-22T09:29:24.002Z,48.05
2023-04-22T09:32:12.767Z,48.18
2023-04-22T09:35:03.806Z,48.09
2023-04-22T09:37:52.823Z,47.77
2023-04-22T09:40:44.117Z,47.98
2023-04-22T09:43:33.734Z,46.90
2023-04-22T09:46:26.670Z,46.30
2023-04-22T09:49:17.244Z,48.74
2023-04-22T09:52:07.992Z,45.83
2023-04-22T09:54:56.620Z,46.01
2023-04-22T09:57:45.899Z,42.73
2023-04-22T10:00:34.413Z,44.20
2023-04-22T10:03:23.063Z,42.71
2023-04-22T10:06:12.134Z,41.04
2023-04-22T10:09:02.388Z,40.81
2023-04-22T10:11:52.341Z,43.72
2023-04-22T10:14:40.897Z,43.78
2023-04-22T10:17:30.935Z,40.81
2023-04-22T10:20:20.399Z,41.15
2023-04-22T10:23:16.704Z,40.14
2023-04-22T10:26:06.744Z,40.97
2023-04-22T10:28:55.225Z,41.15
2023-04-22T10:31:44.730Z,41.12
2023-04-22T10:34:33.535Z,41.24
2023-04-22T10:37:22.280Z,40.13
2023-04-22T10:40:15.887Z,39.59
2023-04-22T10:43:05.757Z,39.64
2023-04-22T10:45:54.358Z,40.57
2023-04-22T10:48:48.975Z,37.38
2023-04-22T10:51:40.737Z,39.73
2023-04-22T10:55:00.778Z,39.08
2023-04-22T10:57:50.521Z,36.85
2023-04-22T11:00:53.062Z,37.57
2023-04-22T11:03:42.068Z,37.99
2023-04-22T11:06:31.097Z,38.06
2023-04-22T11:09:19.650Z,36.83
2023-04-22T11:12:42.808Z,36.96
2023-04-22T11:15:32.218Z,35.43
2023-04-22T11:18:24.082Z,36.83
2023-04-22T11:21:12.701Z,37.13
2023-04-22T11:24:06.191Z,35.82
2023-04-22T11:26:56.961Z,36.11
2023-04-22T11:29:45.527Z,34.50
2023-04-22T11:32:34.136Z,34.64
2023-04-22T11:35:26.994Z,34.09
2023-04-22T11:38:15.598Z,34.00
2023-04-22T11:41:05.040Z,32.80
2023-04-22T11:43:54.786Z,33.07
2023-04-22T11:46:45.264Z,33.58
2023-04-22T11:49:33.778Z,34.85
2023-04-22T11:52:23.704Z,34.42
2023-04-22T11:55:12.407Z,35.57
2023-04-22T11:58:03.105Z,35.88
2023-04-22T12:00:53.440Z,37.66
2023-04-22T12:03:42.374Z,38.49
2023-04-22T12:06:32.259Z,38.90
2023-04-22T12:09:25.642Z,39.54
2023-04-22T12:12:14.148Z,39.75
2023-04-22T12:15:09.814Z,38.37
2023-04-22T12:17:59.136Z,38.15
2023-04-22T12:20:47.644Z,37.83
2023-04-22T12:23:42.874Z,37.13
2023-04-22T12:26:33.106Z,38.00
2023-04-22T12:29:28.314Z,37.22
2023-04-22T12:32:16.890Z,37.41
2023-04-22T12:35:08.437Z,37.25
2023-04-22T12:37:56.924Z,36.81
2023-04-22T12:40:45.743Z,35.97
2023-04-22T12:43:36.735Z,36.83
2023-04-22T12:46:26.087Z,36.40
2023-04-22T12:49:15.153Z,38.21
2023-04-22T12:52:03.712Z,37.85
2023-04-22T12:54:52.250Z,37.18
2023-04-22T12:57:40.891Z,38.02
2023-04-22T13:00:30.955Z,37.19
2023-04-22T13:03:20.030Z,38.14
2023-04-22T13:06:08.791Z,37.11
2023-04-22T13:08:57.291Z,37.50
2023-04-22T13:11:45.852Z,37.59
2023-04-22T13:14:34.410Z,37.04
2023-04-22T13:17:24.306Z,36.90
2023-04-22T13:20:14.573Z,36.09
2023-04-22T13:23:04.779Z,36.60
2023-04-22T13:25:53.877Z,36.23
2023-04-22T13:28:43.061Z,36.72
2023-04-22T13:31:31.602Z,36.85
2023-04-22T13:34:21.626Z,36.21
2023-04-22T13:37:10.165Z,36.57
2023-04-22T13:39:58.661Z,35.83
2023-04-22T13:42:47.294Z,37.58
2023-04-22T13:45:35.849Z,36.13
2023-04-22T13:48:24.374Z,37.53
2023-04-22T13:51:14.252Z,38.26
2023-04-22T13:54:02.790Z,36.61
2023-04-22T13:56:51.228Z,37.79
2023-04-22T13:59:40.166Z,37.35
2023-04-22T14:02:28.993Z,36.77
2023-04-22T14:08:07.018Z,39.07
2023-04-22T14:10:55.653Z,38.67
2023-04-22T14:13:45.125Z,38.15
2023-04-22T14:16:33.697Z,39.49
2023-04-22T14:19:24.211Z,38.61
2023-04-22T14:22:12.634Z,37.99
2023-04-22T14:25:02.526Z,37.73
2023-04-22T14:27:51.360Z,39.35
2023-04-22T14:30:39.921Z,38.05
2023-04-22T14:33:29.016Z,39.41
2023-04-22T14:36:18.550Z,38.80
2023-04-22T14:39:07.107Z,40.03
2023-04-22T14:41:57.939Z,38.32
2023-04-22T14:44:46.485Z,38.23
2023-04-22T14:47:35.132Z,39.29
2023-04-22T14:50:23.782Z,38.87
2023-04-22T14:53:12.282Z,38.53
2023-04-22T14:56:01.058Z,38.87
2023-04-22T14:58:51.017Z,39.43
2023-04-22T15:01:41.724Z,39.46
2023-04-22T15:04:30.281Z,40.02
2023-04-22T15:07:18.872Z,39.39
2023-04-22T15:10:08.482Z,40.28
2023-04-22T15:12:57.073Z,39.79
2023-04-22T15:15:47.230Z,39.18
2023-04-22T15:18:36.018Z,39.50
2023-04-22T15:21:24.549Z,39.92
2023-04-22T15:24:12.996Z,40.64
2023-04-22T15:27:02.875Z,40.69
2023-04-22T15:29:52.059Z,40.32
2023-04-22T15:32:41.939Z,40.35
2023-04-22T15:35:30.389Z,40.46
2023-04-22T15:38:18.962Z,40.74
2023-04-22T15:41:12.274Z,40.92
2023-04-22T15:44:00.906Z,40.83
2023-04-22T15:46:49.407Z,40.65
2023-04-22T15:49:39.514Z,41.14
2023-04-22T15:52:30.056Z,42.53
2023-04-22T15:55:18.566Z,42.21
2023-04-22T15:58:07.153Z,41.53
2023-04-22T16:00:57.867Z,41.86
2023-04-22T16:03:53.282Z,41.60
2023-04-22T16:06:43.192Z,42.25
2023-04-22T16:09:31.848Z,42.29
2023-04-22T16:12:21.335Z,42.73
2023-04-22T16:15:10.972Z,43.80
2023-04-22T16:17:59.660Z,45.18
2023-04-22T16:20:48.409Z,47.08
2023-04-22T16:23:38.375Z,47.69
2023-04-22T16:26:26.897Z,49.14
2023-04-22T16:29:17.186Z,49.92
2023-04-22T16:32:05.740Z,50.16
2023-04-22T16:34:54.202Z,50.54
2023-04-22T16:37:43.077Z,50.87
2023-04-22T16:40:32.900Z,50.85
2023-04-22T16:43:21.835Z,51.35
2023-04-22T16:46:10.418Z,51.63
2023-04-22T16:48:58.958Z,52.06
2023-04-22T16:51:47.570Z,52.44
2023-04-22T16:54:36.075Z,52.77
2023-04-22T16:57:26.005Z,53.15
2023-04-22T17:00:15.636Z,52.51
2023-04-22T17:03:04.317Z,52.94
2023-04-22T17:05:53.134Z,52.55
2023-04-22T17:08:41.656Z,50.46
2023-04-22T17:11:32.251Z,49.48
2023-04-22T17:14:22.176Z,49.67
2023-04-22T17:17:10.714Z,49.41
2023-04-22T17:20:00.357Z,49.54
2023-04-22T17:22:48.826Z,49.52
2023-04-22T17:25:43.011Z,48.72
2023-04-22T17:28:31.573Z,48.61
2023-04-22T17:31:22.240Z,48.93
2023-04-22T17:34:10.751Z,49.35
2023-04-22T17:36:59.281Z,49.23
2023-04-22T17:39:47.833Z,49.72
2023-04-22T17:42:45.657Z,49.72
2023-04-22T17:45:34.896Z,49.09
2023-04-22T17:48:24.837Z,48.48
2023-04-22T17:51:13.586Z,48.31
2023-04-22T17:54:03.239Z,48.61
2023-04-22T17:56:51.773Z,48.87
2023-04-22T17:59:40.318Z,48.54
2023-04-22T18:02:29.095Z,49.12
2023-04-22T18:05:19.513Z,49.58
2023-04-22T18:08:10.375Z,49.85
2023-04-22T18:10:59.096Z,49.98
2023-04-22T18:13:47.616Z,50.01
2023-04-22T18:16:36.151Z,50.25
2023-04-22T18:19:24.659Z,50.52
2023-04-22T18:22:14.506Z,50.63
2023-04-22T18:25:03.060Z,51.00
2023-04-22T18:27:54.959Z,50.91
2023-04-22T18:30:44.495Z,51.17
2023-04-22T18:33:33.032Z,51.18
2023-04-22T18:36:21.559Z,51.23
2023-04-22T18:39:11.568Z,51.58
2023-04-22T18:42:00.048Z,51.71
2023-04-22T18:44:48.587Z,52.30
2023-04-22T18:47:37.185Z,52.52
2023-04-22T18:50:27.166Z,52.38
2023-04-22T18:53:15.681Z,52.94
2023-04-22T18:56:05.764Z,52.78
2023-04-22T18:58:55.345Z,52.83
2023-04-22T19:01:44.135Z,53.30
2023-04-22T19:04:32.849Z,53.57
2023-04-22T19:07:21.515Z,54.36
2023-04-22T19:10:10.767Z,54.70
2023-04-22T19:13:00.686Z,55.28
2023-04-22T19:15:49.175Z,55.81
2023-04-22T19:18:37.903Z,56.02
2023-04-22T19:21:27.069Z,55.92
2023-04-22T19:24:16.142Z,56.00
2023-04-22T19:27:07.049Z,56.18
2023-04-22T19:29:56.912Z,56.21
2023-04-22T19:32:45.419Z,56.92
2023-04-22T19:35:33.992Z,57.80
2023-04-22T19:38:24.021Z,59.00
2023-04-22T19:41:12.539Z,59.87
2023-04-22T19:44:01.128Z,60.11
2023-04-22T19:46:51.042Z,60.68
2023-04-22T19:49:41.035Z,61.25
2023-04-22T19:52:30.765Z,61.96
2023-04-22T19:55:19.900Z,62.48
2023-04-22T19:58:08.593Z,62.93
2023-04-22T20:00:57.535Z,63.35
2023-04-22T20:03:48.279Z,63.92
2023-04-22T20:06:37.080Z,64.59
2023-04-22T20:09:26.486Z,65.36
2023-04-22T20:12:15.765Z,65.22
2023-04-22T20:15:05.842Z,65.45
2023-04-22T20:17:55.770Z,66.18
2023-04-22T20:20:48.092Z,67.43
2023-04-22T20:23:36.862Z,67.20
2023-04-22T20:26:26.155Z,67.12
2023-04-22T20:29:14.801Z,67.83
2023-04-22T20:32:05.062Z,68.14
2023-04-22T20:34:54.462Z,68.69
2023-04-22T20:37:46.068Z,68.97
2023-04-22T20:40:35.512Z,68.89
2023-04-22T20:43:24.258Z,68.83
2023-04-22T20:46:12.957Z,69.18
2023-04-22T20:49:01.590Z,69.36
2023-04-22T20:51:51.188Z,69.54
2023-04-22T20:54:41.212Z,69.89
2023-04-22T20:57:29.664Z,70.27
2023-04-22T21:00:18.672Z,70.61
2023-04-22T21:03:09.637Z,70.75
2023-04-22T21:05:59.230Z,70.75
2023-04-22T21:08:48.730Z,71.45
2023-04-22T21:11:39.236Z,72.07
2023-04-22T21:14:28.217Z,72.36
2023-04-22T21:17:20.994Z,73.00
2023-04-22T21:20:10.416Z,73.81
2023-04-22T21:22:59.691Z,73.94
2023-04-22T21:25:49.224Z,74.73
2023-04-22T21:28:40.164Z,74.99
2023-04-22T21:31:28.886Z,75.73
2023-04-22T21:34:17.438Z,76.40
2023-04-22T21:37:06.425Z,76.53
2023-04-22T21:39:54.919Z,77.04
2023-04-22T21:42:43.502Z,77.05
2023-04-22T21:45:33.356Z,76.98
2023-04-22T21:48:21.800Z,77.04
2023-04-22T21:51:10.229Z,77.58
2023-04-22T21:53:58.731Z,78.14
2023-04-22T21:56:47.323Z,78.47
2023-04-22T21:59:35.845Z,79.17
2023-04-22T22:02:26.398Z,78.98
2023-04-22T22:05:15.832Z,78.98
2023-04-22T22:08:04.342Z,79.44
2023-04-22T22:10:52.793Z,79.45
2023-04-22T22:13:41.454Z,80.18
2023-04-22T22:16:31.235Z,80.48
2023-04-22T22:19:21.475Z,80.38
2023-04-22T22:22:10.086Z,81.11
2023-04-22T22:24:58.898Z,81.28
2023-04-22T22:27:49.004Z,81.61
2023-04-22T22:30:37.796Z,82.36
2023-04-22T22:33:26.335Z,82.48
2023-04-22T22:36:16.244Z,82.97
2023-04-22T22:39:04.942Z,83.15
2023-04-22T22:41:55.324Z,82.87
2023-04-22T22:44:43.931Z,82.47
2023-04-22T22:47:32.588Z,82.55
2023-04-22T22:50:21.477Z,83.02
2023-04-22T22:53:11.307Z,83.35
2023-04-22T22:55:59.773Z,83.55
2023-04-22T22:58:48.332Z,83.94
2023-04-22T23:01:36.947Z,84.53
2023-04-22T23:04:25.714Z,84.76
2023-04-22T23:07:16.632Z,85.40
2023-04-22T23:10:07.908Z,85.47
2023-04-22T23:12:56.387Z,86.08
2023-04-22T23:15:44.870Z,86.17
2023-04-22T23:18:34.119Z,86.13
2023-04-22T23:21:22.654Z,87.06
2023-04-22T23:24:12.067Z,88.52
2023-04-22T23:27:02.930Z,90.18
2023-04-22T23:29:51.918Z,92.83
2023-04-22T23:32:41.335Z,94.75
2023-04-22T23:35:30.204Z,96.71
2023-04-22T23:38:19.468Z,98.46
2023-04-22T23:41:07.987Z,99.47
2023-04-22T23:43:57.820Z,100.00
2023-04-22T23:46:47.964Z,100.00
2023-04-22T23:49:36.617Z,100.00
2023-04-22T23:52:25.118Z,100.00
2023-04-22T23:55:15.904Z,100.00
2023-04-22T23:58:04.957Z,100.00
